createdAt,value
2023-11-18T00:02:50.862Z,100.00
2023-11-18T00:05:57.227Z,100.00
2023-11-18T00:09:04.196Z,100.00
2023-11-18T00:12:12.410Z,100.00
2023-11-18T00:15:19.205Z,100.00
2023-11-18T00:18:25.591Z,100.00
2023-11-18T00:21:32.505Z,100.00
2023-11-18T00:24:39.173Z,100.00
2023-11-18T00:27:47.072Z,100.00
2023-11-18T00:30:53.586Z,100.00
2023-11-18T00:34:00.493Z,100.00
2023-11-18T00:37:08.432Z,100.00
2023-11-18T00:40:14.834Z,100.00
2023-11-18T00:43:23.823Z,100.00
2023-11-18T00:46:30.432Z,100.00
2023-11-18T00:49:37.426Z,100.00
2023-11-18T00:52:44.238Z,100.00
2023-11-18T00:55:50.909Z,100.00
2023-11-18T00:58:58.892Z,100.00
2023-11-18T01:02:06.346Z,100.00
2023-11-18T01:05:14.486Z,100.00
2023-11-18T01:08:21.112Z,100.00
2023-11-18T01:11:27.845Z,100.00
2023-11-18T01:14:36.205Z,100.00
2023-11-18T01:17:43.438Z,100.00
2023-11-18T01:20:49.744Z,100.00
2023-11-18T01:23:56.574Z,99.27
2023-11-18T01:27:03.163Z,99.72
2023-11-18T01:30:12.413Z,98.49
2023-11-18T01:33:19.647Z,98.60
2023-11-18T01:36:26.063Z,99.65
2023-11-18T01:39:32.711Z,97.50
2023-11-18T01:42:39.480Z,99.07
2023-11-18T01:45:47.590Z,99.90
2023-11-18T01:48:54.903Z,98.78
2023-11-18T01:52:02.693Z,97.98
2023-11-18T01:55:09.646Z,100.00
2023-11-18T01:58:20.897Z,97.46
2023-11-18T02:01:31.881Z,97.68
2023-11-18T02:04:38.886Z,95.72
2023-11-18T02:07:47.588Z,96.71
2023-11-18T02:10:59.926Z,94.46
2023-11-18T02:14:12.170Z,91.22
2023-11-18T02:17:25.596Z,91.11
2023-11-18T02:20:33.273Z,90.90
2023-11-18T02:23:40.168Z,91.98
2023-11-18T02:26:47.924Z,90.08
2023-11-18T02:29:54.435Z,88.07
2023-11-18T02:33:06.937Z,86.77
2023-11-18T02:36:20.887Z,86.46
2023-11-18T02:39:32.599Z,88.33
2023-11-18T02:42:41.196Z,88.19
2023-11-18T02:45:48.189Z,85.96
2023-11-18T02:48:55.333Z,87.66
2023-11-18T02:52:02.209Z,90.49
2023-11-18T02:55:10.038Z,89.86
2023-11-18T02:58:18.926Z,89.23
2023-11-18T03:01:26.568Z,89.21
2023-11-18T03:04:33.276Z,85.05
2023-11-18T03:07:39.615Z,88.59
2023-11-18T03:10:46.034Z,85.30
2023-11-18T03:13:54.443Z,84.64
2023-11-18T03:17:01.286Z,87.76
2023-11-18T03:20:13.266Z,88.45
2023-11-18T03:23:19.729Z,89.27
2023-11-18T03:26:27.306Z,88.72
2023-11-18T03:29:35.111Z,90.66
2023-11-18T03:32:42.709Z,88.23
2023-11-18T03:35:49.374Z,87.31
2023-11-18T03:38:56.331Z,86.12
2023-11-18T03:42:03.172Z,84.56
2023-11-18T03:45:12.126Z,85.03
2023-11-18T03:48:19.842Z,84.94
2023-11-18T03:51:26.139Z,83.83
2023-11-18T03:54:32.826Z,79.96
2023-11-18T03:57:39.190Z,82.36
2023-11-18T04:00:47.520Z,81.96
2023-11-18T04:03:54.214Z,82.45
2023-11-18T04:07:02.281Z,83.72
2023-11-18T04:10:11.555Z,84.44
2023-11-18T04:13:18.399Z,85.87
2023-11-18T04:16:26.860Z,85.46
2023-11-18T04:19:33.758Z,85.03
2023-11-18T04:22:58.822Z,85.96
2023-11-18T04:26:05.924Z,87.36
2023-11-18T04:29:12.669Z,85.02
2023-11-18T04:32:20.726Z,85.80
2023-11-18T04:35:27.130Z,84.26
2023-11-18T04:38:34.898Z,83.86
2023-11-18T04:41:41.546Z,84.01
2023-11-18T04:44:48.426Z,83.18
2023-11-18T04:47:56.242Z,81.87
2023-11-18T04:51:02.556Z,81.58
2023-11-18T04:54:09.606Z,80.50
2023-11-18T04:57:16.332Z,80.69
2023-11-18T05:00:23.318Z,79.80
2023-11-18T05:03:31.834Z,79.69
2023-11-18T05:06:38.488Z,79.91
2023-11-18T05:09:45.273Z,79.89
2023-11-18T05:12:57.128Z,79.60
2023-11-18T05:16:05.152Z,79.33
2023-11-18T05:19:13.244Z,78.67
2023-11-18T05:22:20.001Z,77.82
2023-11-18T05:25:26.294Z,77.68
2023-11-18T05:28:33.766Z,77.38
2023-11-18T05:31:40.618Z,77.21
2023-11-18T05:34:49.027Z,75.98
2023-11-18T05:37:55.605Z,76.83
2023-11-18T05:41:03.215Z,78.46
2023-11-18T05:44:13.368Z,77.88
2023-11-18T05:47:20.315Z,77.20
2023-11-18T05:50:28.323Z,76.86
2023-11-18T05:53:35.296Z,77.27
2023-11-18T05:56:42.188Z,77.79
2023-11-18T05:59:49.546Z,77.13
2023-11-18T06:02:57.469Z,76.90
2023-11-18T06:06:07.944Z,77.04
2023-11-18T06:09:21.969Z,79.06
2023-11-18T06:12:29.131Z,80.60
2023-11-18T06:15:37.065Z,82.09
2023-11-18T06:18:46.453Z,83.31
2023-11-18T06:21:54.223Z,82.45
2023-11-18T06:25:01.047Z,84.40
2023-11-18T06:28:09.186Z,83.58
2023-11-18T06:31:15.998Z,83.13
2023-11-18T06:34:23.655Z,81.78
2023-11-18T06:37:36.226Z,80.33
2023-11-18T06:40:42.610Z,81.35
2023-11-18T06:43:58.729Z,78.54
2023-11-18T06:47:07.580Z,77.92
2023-11-18T06:50:15.635Z,77.08
2023-11-18T06:53:23.816Z,76.18
2023-11-18T06:56:31.604Z,76.91
2023-11-18T06:59:38.279Z,75.06
2023-11-18T07:02:44.860Z,74.05
2023-11-18T07:05:51.578Z,73.32
2023-11-18T07:09:01.538Z,74.20
2023-11-18T07:12:09.292Z,72.31
2023-11-18T07:15:17.139Z,71.64
2023-11-18T07:18:24.559Z,70.23
2023-11-18T07:21:31.323Z,70.43
2023-11-18T07:24:39.306Z,70.47
2023-11-18T07:27:46.131Z,69.19
2023-11-18T07:30:53.641Z,68.44
2023-11-18T07:34:00.821Z,67.00
2023-11-18T07:37:09.468Z,66.77
2023-11-18T07:40:23.662Z,65.07
2023-11-18T07:43:32.599Z,65.96
2023-11-18T07:46:39.801Z,65.23
2023-11-18T07:49:46.926Z,65.25
2023-11-18T07:52:53.306Z,64.49
2023-11-18T07:56:06.071Z,65.06
2023-11-18T07:59:17.331Z,64.71
2023-11-18T08:02:24.337Z,64.46
2023-11-18T08:05:32.952Z,63.18
2023-11-18T08:08:40.258Z,63.92
2023-11-18T08:11:48.458Z,63.66
2023-11-18T08:14:54.793Z,62.47
2023-11-18T08:18:01.704Z,62.09
2023-11-18T08:21:08.759Z,62.29
2023-11-18T08:24:16.184Z,61.13
2023-11-18T08:27:24.463Z,60.65
2023-11-18T08:30:31.018Z,60.27
2023-11-18T08:33:37.551Z,60.59
2023-11-18T08:36:45.119Z,60.00
2023-11-18T08:39:51.255Z,59.21
2023-11-18T08:42:59.411Z,59.57
2023-11-18T08:46:14.546Z,59.17
2023-11-18T08:49:22.998Z,59.41
2023-11-18T08:52:30.093Z,58.34
2023-11-18T08:55:43.967Z,58.74
2023-11-18T08:58:53.212Z,58.70
2023-11-18T09:02:07.385Z,58.52
2023-11-18T09:05:14.353Z,59.33
2023-11-18T09:08:23.328Z,59.29
2023-11-18T09:11:36.438Z,57.79
2023-11-18T09:14:44.142Z,57.19
2023-11-18T09:17:50.543Z,57.33
2023-11-18T09:20:57.982Z,57.00
2023-11-18T09:24:06.672Z,56.78
2023-11-18T09:27:13.977Z,55.61
2023-11-18T09:30:21.875Z,55.44
2023-11-18T09:33:34.044Z,56.15
2023-11-18T09:36:41.098Z,56.64
2023-11-18T09:39:47.672Z,56.70
2023-11-18T09:42:54.229Z,56.51
2023-11-18T09:46:13.667Z,56.63
2023-11-18T09:49:35.224Z,56.67
2023-11-18T09:52:53.294Z,57.34
2023-11-18T09:56:11.008Z,57.31
2023-11-18T09:59:25.145Z,55.91
2023-11-18T10:02:34.816Z,55.15
2023-11-18T10:05:45.614Z,54.21
2023-11-18T10:08:54.768Z,54.59
2023-11-18T10:12:06.879Z,53.72
2023-11-18T10:15:18.425Z,53.62
2023-11-18T10:18:30.037Z,53.24
2023-11-18T10:21:41.207Z,53.99
2023-11-18T10:24:48.336Z,53.02
2023-11-18T10:27:55.064Z,53.15
2023-11-18T10:31:06.095Z,53.20
2023-11-18T10:34:19.973Z,53.88
2023-11-18T10:37:27.422Z,53.27
2023-11-18T10:40:37.402Z,54.10
2023-11-18T10:43:45.814Z,55.68
2023-11-18T10:46:55.284Z,53.27
2023-11-18T10:50:03.836Z,54.09
2023-11-18T10:53:12.735Z,54.07
2023-11-18T10:56:28.251Z,54.92
2023-11-18T10:59:34.735Z,54.06
2023-11-18T11:02:42.825Z,54.65
2023-11-18T11:05:51.116Z,55.61
2023-11-18T11:08:59.936Z,55.61
2023-11-18T11:12:16.432Z,55.21
2023-11-18T11:15:29.669Z,54.61
2023-11-18T11:18:42.731Z,54.54
2023-11-18T11:21:58.082Z,54.59
2023-11-18T11:25:23.049Z,55.07
2023-11-18T11:28:40.844Z,54.89
2023-11-18T11:31:56.042Z,54.22
2023-11-18T11:35:09.627Z,53.82
2023-11-18T11:38:20.124Z,54.03
2023-11-18T11:41:28.820Z,54.50
2023-11-18T11:44:43.662Z,55.34
2023-11-18T11:47:52.580Z,54.89
2023-11-18T11:51:15.363Z,55.84
2023-11-18T11:54:30.602Z,55.44
2023-11-18T11:57:40.290Z,55.29
2023-11-18T12:00:49.386Z,55.72
2023-11-18T12:03:59.516Z,56.14
2023-11-18T12:07:18.473Z,56.14
2023-11-18T12:10:36.911Z,56.69
2023-11-18T12:14:10.963Z,58.49
2023-11-18T12:17:22.734Z,57.98
2023-11-18T12:20:43.898Z,58.21
2023-11-18T12:24:22.134Z,57.02
2023-11-18T12:27:53.269Z,56.53
2023-11-18T12:31:07.585Z,57.67
2023-11-18T12:34:18.210Z,56.92
2023-11-18T12:37:55.407Z,57.91
2023-11-18T12:41:03.857Z,58.09
2023-11-18T12:44:33.009Z,57.53
2023-11-18T12:47:41.865Z,58.81
2023-11-18T12:50:48.836Z,58.82
2023-11-18T12:53:55.820Z,59.19
2023-11-18T12:57:03.552Z,58.56
2023-11-18T13:00:18.337Z,59.21
2023-11-18T13:03:24.833Z,59.77
2023-11-18T13:06:31.508Z,59.96
2023-11-18T13:09:39.547Z,59.98
2023-11-18T13:12:48.528Z,60.91
2023-11-18T13:15:56.887Z,61.32
2023-11-18T13:19:06.588Z,61.55
2023-11-18T13:22:13.969Z,61.00
2023-11-18T13:25:22.525Z,61.96
2023-11-18T13:28:29.454Z,60.93
2023-11-18T13:31:37.955Z,62.13
2023-11-18T13:34:44.792Z,62.30
2023-11-18T13:37:51.977Z,62.51
2023-11-18T13:40:59.481Z,61.59
2023-11-18T13:44:06.673Z,60.83
2023-11-18T13:47:14.883Z,61.90
2023-11-18T13:50:21.691Z,62.11
2023-11-18T13:53:28.393Z,62.06
2023-11-18T13:56:34.890Z,62.76
2023-11-18T13:59:45.902Z,61.55
2023-11-18T14:02:54.284Z,62.48
2023-11-18T14:06:03.594Z,62.22
2023-11-18T14:09:12.301Z,62.50
2023-11-18T14:12:18.693Z,63.33
2023-11-18T14:15:25.812Z,62.52
2023-11-18T14:18:33.877Z,62.55
2023-11-18T14:21:40.603Z,62.62
2023-11-18T14:24:47.051Z,63.53
2023-11-18T14:27:54.705Z,63.22
2023-11-18T14:31:01.138Z,63.44
2023-11-18T14:34:11.320Z,62.94
2023-11-18T14:37:20.564Z,63.25
2023-11-18T14:40:29.605Z,63.57
2023-11-18T14:43:36.130Z,63.53
2023-11-18T14:46:42.754Z,63.09
2023-11-18T14:49:50.988Z,63.38
2023-11-18T14:53:01.389Z,63.93
2023-11-18T14:56:09.205Z,64.27
2023-11-18T14:59:16.263Z,64.48
2023-11-18T15:02:22.833Z,64.79
2023-11-18T15:05:33.021Z,65.48
2023-11-18T15:08:43.881Z,65.67
2023-11-18T15:11:54.727Z,66.72
2023-11-18T15:15:01.064Z,67.87
2023-11-18T15:18:10.267Z,68.25
2023-11-18T15:21:18.456Z,68.91
2023-11-18T15:24:25.498Z,70.20
2023-11-18T15:27:34.236Z,71.00
2023-11-18T15:30:41.618Z,71.43
2023-11-18T15:33:48.092Z,72.57
2023-11-18T15:36:56.129Z,73.18
2023-11-18T15:40:03.024Z,72.64
2023-11-18T15:43:15.752Z,72.61
2023-11-18T15:46:22.022Z,73.36
2023-11-18T15:49:28.334Z,72.61
2023-11-18T15:52:37.758Z,72.17
2023-11-18T15:55:45.682Z,71.11
2023-11-18T15:58:52.225Z,70.09
2023-11-18T16:01:58.533Z,69.69
2023-11-18T16:05:06.964Z,69.53
2023-11-18T16:08:15.168Z,68.81
2023-11-18T16:11:22.032Z,68.73
2023-11-18T16:14:28.582Z,68.78
2023-11-18T16:17:35.179Z,68.44
2023-11-18T16:20:41.510Z,67.92
2023-11-18T16:23:49.248Z,68.03
2023-11-18T16:26:55.824Z,67.39
2023-11-18T16:30:02.397Z,66.81
2023-11-18T16:33:09.926Z,66.12
2023-11-18T16:36:23.917Z,67.34
2023-11-18T16:39:31.967Z,67.66
2023-11-18T16:42:38.994Z,67.08
2023-11-18T16:45:49.376Z,67.39
2023-11-18T16:48:57.838Z,69.51
2023-11-18T16:52:07.124Z,68.99
2023-11-18T16:55:15.447Z,69.65
2023-11-18T16:58:22.254Z,71.29
2023-11-18T17:01:28.688Z,71.45
2023-11-18T17:04:36.122Z,72.00
2023-11-18T17:07:42.624Z,71.23
2023-11-18T17:10:55.067Z,71.14
2023-11-18T17:14:01.422Z,72.00
2023-11-18T17:17:09.994Z,71.76
2023-11-18T17:20:18.313Z,71.62
2023-11-18T17:23:26.322Z,72.46
2023-11-18T17:26:40.368Z,72.47
2023-11-18T17:29:47.297Z,71.95
2023-11-18T17:32:54.524Z,73.03
2023-11-18T17:36:01.158Z,72.13
2023-11-18T17:39:07.896Z,71.48
2023-11-18T17:42:15.832Z,69.12
2023-11-18T17:45:22.294Z,70.00
2023-11-18T17:48:28.507Z,71.06
2023-11-18T17:51:35.247Z,70.02
2023-11-18T17:54:44.882Z,68.92
2023-11-18T17:57:53.635Z,69.67
2023-11-18T18:01:03.956Z,67.71
2023-11-18T18:04:10.698Z,66.91
2023-11-18T18:07:17.443Z,67.35
2023-11-18T18:10:28.784Z,67.67
2023-11-18T18:13:37.904Z,66.70
2023-11-18T18:16:44.264Z,69.25
2023-11-18T18:19:51.522Z,69.67
2023-11-18T18:22:58.081Z,70.29
2023-11-18T18:26:04.878Z,70.24
2023-11-18T18:29:15.625Z,68.94
2023-11-18T18:32:24.103Z,69.40
2023-11-18T18:35:30.666Z,70.01
2023-11-18T18:38:37.401Z,69.19
2023-11-18T18:41:43.867Z,69.27
2023-11-18T18:44:55.737Z,70.46
2023-11-18T18:48:03.565Z,70.47
2023-11-18T18:51:10.918Z,70.11
2023-11-18T18:54:20.051Z,69.92
2023-11-18T18:57:26.476Z,69.80
2023-11-18T19:00:34.316Z,69.91
2023-11-18T19:03:48.594Z,69.43
2023-11-18T19:06:56.143Z,68.60
2023-11-18T19:10:03.209Z,68.77
2023-11-18T19:13:09.944Z,68.02
2023-11-18T19:16:17.878Z,67.24
2023-11-18T19:19:24.590Z,67.72
2023-11-18T19:22:35.784Z,67.35
2023-11-18T19:25:42.083Z,66.92
2023-11-18T19:28:48.500Z,66.96
2023-11-18T19:31:56.484Z,67.06
2023-11-18T19:35:06.349Z,65.69
2023-11-18T19:38:13.075Z,67.17
2023-11-18T19:41:19.979Z,66.58
2023-11-18T19:44:26.383Z,67.24
2023-11-18T19:47:36.305Z,67.23
2023-11-18T19:50:42.894Z,68.00
2023-11-18T19:53:49.683Z,67.42
2023-11-18T19:56:56.165Z,68.46
2023-11-18T20:00:06.394Z,69.29
2023-11-18T20:03:15.829Z,69.69
2023-11-18T20:06:22.650Z,70.42
2023-11-18T20:09:29.164Z,69.27
2023-11-18T20:12:36.305Z,69.82
2023-11-18T20:15:42.774Z,70.58
2023-11-18T20:18:50.884Z,70.61
2023-11-18T20:21:57.285Z,72.55
2023-11-18T20:25:03.897Z,72.56
2023-11-18T20:28:10.276Z,73.49
2023-11-18T20:31:16.970Z,73.14
2023-11-18T20:34:24.825Z,71.25
2023-11-18T20:37:32.618Z,71.39
2023-11-18T20:40:38.903Z,71.80
2023-11-18T20:43:46.092Z,70.66
2023-11-18T20:46:54.146Z,71.01
2023-11-18T20:50:02.066Z,71.63
2023-11-18T20:53:08.924Z,71.19
2023-11-18T20:56:17.899Z,71.58
2023-11-18T20:59:24.866Z,72.21
2023-11-18T21:02:31.757Z,71.70
2023-11-18T21:05:39.949Z,72.65
2023-11-18T21:08:46.583Z,73.76
2023-11-18T21:11:54.921Z,72.59
2023-11-18T21:15:21.835Z,73.89
2023-11-18T21:18:28.602Z,73.34
2023-11-18T21:21:39.317Z,71.85
2023-11-18T21:24:45.901Z,71.57
2023-11-18T21:27:53.294Z,73.09
2023-11-18T21:30:59.983Z,72.59
2023-11-18T21:34:06.739Z,72.12
2023-11-18T21:37:14.718Z,72.75
2023-11-18T21:40:25.595Z,71.98
2023-11-18T21:43:32.436Z,72.21
2023-11-18T21:46:39.029Z,71.19
2023-11-18T21:53:02.053Z,73.25
2023-11-18T21:56:09.313Z,74.51
2023-11-18T21:59:15.926Z,74.84
2023-11-18T22:02:23.727Z,74.41
2023-11-18T22:05:30.501Z,73.21
2023-11-18T22:08:38.517Z,73.31
2023-11-18T22:11:50.475Z,74.15
2023-11-18T22:15:05.443Z,74.27
2023-11-18T22:18:12.113Z,74.29
2023-11-18T22:21:18.822Z,74.44
2023-11-18T22:24:26.860Z,74.36
2023-11-18T22:27:35.277Z,74.49
2023-11-18T22:30:41.705Z,75.48
2023-11-18T22:33:49.491Z,75.63
2023-11-18T22:36:56.655Z,75.84
2023-11-18T22:40:09.851Z,75.76
2023-11-18T22:43:16.833Z,75.52
2023-11-18T22:46:23.378Z,76.99
2023-11-18T22:49:30.289Z,76.58
2023-11-18T22:52:37.511Z,75.18
2023-11-18T22:55:45.957Z,76.12
2023-11-18T22:58:54.810Z,75.51
2023-11-18T23:02:03.418Z,75.41
2023-11-18T23:05:15.102Z,77.10
2023-11-18T23:08:23.535Z,77.10
2023-11-18T23:11:32.362Z,76.14
2023-11-18T23:14:39.147Z,74.61
2023-11-18T23:17:46.823Z,75.20
2023-11-18T23:20:55.826Z,74.00
2023-11-18T23:24:03.533Z,76.07
2023-11-18T23:27:11.707Z,75.33
2023-11-18T23:30:22.184Z,74.90
2023-11-18T23:33:29.300Z,74.27
2023-11-18T23:36:35.676Z,75.71
2023-11-18T23:39:42.760Z,76.32
2023-11-18T23:42:50.704Z,74.88
2023-11-18T23:45:57.583Z,77.07
2023-11-18T23:49:04.168Z,76.32
2023-11-18T23:52:11.614Z,76.60
2023-11-18T23:55:18.398Z,77.28
2023-11-18T23:58:27.414Z,77.89
